Terminal Aerodrome Forecast
Issued by NWS Portland, OR

Home | Current Version | Previous Version | Text Only | Print | Product List | Glossary On
Versions: 1 2 3 4 5 6 7 8 9 10 11 12 13 14
000
FTUS46 KPQR 161749
TAFAST
TAF
KAST 161749Z 1618/1718 VRB04KT P6SM -RA VCSH FEW015 SCT035 OVC045
     FM170500 18009KT P6SM -RA BKN015 OVC040=

USA.gov is the U.S. government's official web portal to all federal, state and local government web resources and services.